Portada
METAR-TAF:

METAR-TAF

Aeropuertos :

Tokushima, Japón

latitud: 34-08N, longitud: 134-37E, altitud: 8 m

Observación

El informe se hizo hace 46 minutos, a las 00:00 UTC
Viento 8 kt del oeste-noroeste
Temperatura 5°C
Humedad 65%
Presión 1029 hPa
Visibilidad 10 km o más
Escasas nubes a una altura de 3000 ft

METAR: RJOS 190000Z 30008KT 9999 FEW030 05/M01 Q1029

Hora: 09:46 (00:46 UTC)


TAF: falta

Observaciones y pronósticos meteorológicos de más de 4000 aeropuertos (mensajes METAR y TAF).

Los puntos amarillos y rojos representan las estaciones disponibles.

Ponga el ratón en el punto deseado para ver el nombre de la estación.

Haga clic para ver las observaciones y los pronósticos meteorológicos.

Para cambiar el mapa : haga clic en los botones verdes con una cruz de color negro para hacer un zoom, en el botón verde con un guión para alejar o en las flechas verdes para mapas adyacentes.


METAR-TAF: